KBVO/BVO METAR and TAF weather

Enter ICAO airport designator
Station Type Date Time Source
KBVO METAR 2020/08/11 18:53 UTC NOAA

KBVO 111853Z AUTO 00000KT 10SM FEW100 27/22 A2998 RMK AO2 SLP140 T02720222


Station Type Date Time Source
KBVO Decoded METAR 2020/08/11 18:53 UTC NOAA

BARTLESVILLE MUNICIPAL AIRPORT , OK, United States (KBVO) 36-46N 96-01W 210M
Aug 11, 2020 - 02:53 PM EDT / 2020.08.11 1853 UTC
Wind: Calm:0
Visibility: 10 mile(s):0
Sky conditions: mostly clear
Temperature: 81.0 F (27.2 C)
Dew Point: 72.0 F (22.2 C)
Relative Humidity: 74%
Pressure (altimeter): 29.98 in. Hg (1015 hPa)
ob: KBVO 111853Z AUTO 00000KT 10SM FEW100 27/22 A2998 RMK AO2 SLP140 T02720222
cycle: 19

Station Type Date Time Source
KBVO TAF 2020/08/11 18:30 UTC NOAA

TAF KBVO 111726Z 1118/1218 00000KT P6SM FEW060 SCT120
FM112100 12008KT P6SM BKN250
FM120300 00000KT P6SM BKN250
FM121200 00000KT 4SM BR OVC015
FM121500 13005KT P6SM BKN015

Example: see airport list